Time;durP1;ratioP1;P1;durP2;ratioP2;P2;SDS_P1;SDS_P2;PMS_P1;PMS_P2;Temp;Humidity;BMP_temperature;BMP_pressure;BME280_temperature;BME280_humidity;BME280_pressure;Samples;Min_cycle;Max_cycle;Signal;HPM_P1;HPM_P2
2022/10/28 00:01:20;;;;;;;5.10;1.58;;;;;;;17.33;75.73;101274.09;5115797;28;20042;-81
2022/10/28 00:03:55;;;;;;;1.17;1.15;;;;;;;17.16;76.82;101275.72;5121819;28;20046;-85
2022/10/28 00:06:29;;;;;;;1.25;0.75;;;;;;;17.25;75.86;101272.66;5106749;29;20100;-84
2022/10/28 00:09:00;;;;;;;1.55;1.35;;;;;;;17.28;75.83;101275.16;5107494;28;20058;-83
2022/10/28 00:11:33;;;;;;;1.73;1.40;;;;;;;17.27;76.23;101276.09;5101471;28;20039;-83
2022/10/28 00:14:05;;;;;;;0.80;0.80;;;;;;;17.26;76.44;101282.31;5116148;28;20087;-83
2022/10/28 00:16:37;;;;;;;2.08;1.40;;;;;;;17.21;77.08;101268.44;5118232;29;20038;-85
2022/10/28 00:19:10;;;;;;;1.30;1.20;;;;;;;17.09;77.57;101272.50;5120504;28;20059;-83
2022/10/28 00:21:43;;;;;;;0.57;0.57;;;;;;;17.17;77.13;101269.50;5103374;28;20035;-84
2022/10/28 00:24:13;;;;;;;2.43;2.23;;;;;;;17.19;76.43;101262.34;5116636;28;20388;-83
2022/10/28 00:26:45;;;;;;;2.65;1.75;;;;;;;17.14;76.80;101265.19;5106584;29;20042;-84
2022/10/28 00:29:18;;;;;;;0.70;0.70;;;;;;;17.12;76.88;101260.91;5102609;28;20046;-84
2022/10/28 00:31:49;;;;;;;;;;;;;;;17.13;76.22;101254.66;5088392;29;20043;-84
2022/10/28 00:34:20;;;;;;;1.60;1.38;;;;;;;17.14;76.20;101256.41;5131340;28;19919;-83
2022/10/28 00:36:51;;;;;;;0.77;0.77;;;;;;;17.20;75.74;101258.75;5104590;29;20580;-84
2022/10/28 00:39:23;;;;;;;0.63;0.63;;;;;;;17.21;76.02;101260.47;5103112;28;20119;-84
2022/10/28 00:41:57;;;;;;;1.85;1.58;;;;;;;17.24;76.04;101268.28;5118379;28;20115;-84
2022/10/28 00:44:52;;;;;;;1.02;0.90;;;;;;;17.25;75.72;101263.84;5089293;28;20043;-84
2022/10/28 00:47:38;;;;;;;1.75;0.98;;;;;;;17.15;76.16;101281.94;5104761;29;20046;-84
2022/10/28 00:50:24;;;;;;;12.32;1.52;;;;;;;17.14;75.85;101286.41;5099530;29;20032;-84
2022/10/28 00:53:07;;;;;;;1.85;1.10;;;;;;;17.18;75.47;101279.16;5116319;28;20072;-83
2022/10/28 00:55:41;;;;;;;2.47;2.28;;;;;;;17.18;75.57;101271.22;5105964;28;20063;-83
2022/10/28 00:58:13;;;;;;;1.33;1.23;;;;;;;17.19;75.92;101280.06;5070010;29;20040;-84
2022/10/28 01:00:45;;;;;;;0.40;0.40;;;;;;;17.23;75.36;101277.16;5068758;29;20028;-84
2022/10/28 01:03:16;;;;;;;2.25;1.73;;;;;;;17.25;75.15;101264.69;5114863;28;20051;-84
2022/10/28 01:05:49;;;;;;;3.28;0.57;;;;;;;17.28;74.76;101255.72;5131768;28;20039;-83
2022/10/28 01:08:20;;;;;;;1.15;1.15;;;;;;;17.25;75.01;101259.38;5115814;28;20189;-84
2022/10/28 01:11:10;;;;;;;9.23;2.25;;;;;;;17.23;75.15;101245.34;5101968;29;20109;-83
2022/10/28 01:13:47;;;;;;;2.35;1.95;;;;;;;17.18;75.50;101255.31;5105148;28;20072;-83
2022/10/28 01:17:00;;;;;;;12.20;1.60;;;;;;;17.24;74.98;101249.72;5118365;28;20048;-84
2022/10/28 01:19:32;;;;;;;;;;;;;;;17.23;74.96;101253.28;5115276;28;20125;-83
2022/10/28 01:22:30;;;;;;;4.85;2.17;;;;;;;17.23;75.07;101253.28;5085876;29;19950;-83
2022/10/28 01:25:26;;;;;;;3.42;2.25;;;;;;;17.17;75.98;101261.53;5101390;29;20123;-84
2022/10/28 01:28:02;;;;;;;5.38;1.15;;;;;;;17.33;74.58;101263.47;5121457;28;20032;-83
2022/10/28 01:30:59;;;;;;;1.67;1.05;;;;;;;17.07;76.88;101260.22;5117820;28;20118;-84
2022/10/28 01:33:43;;;;;;;3.22;2.50;;;;;;;17.22;75.44;101267.50;5089224;28;20717;-83
2022/10/28 01:36:23;;;;;;;1.33;1.23;;;;;;;17.23;75.44;101274.50;5116930;29;20089;-84
2022/10/28 01:39:09;;;;;;;0.82;0.82;;;;;;;17.22;75.17;101269.28;5116239;28;20063;-83
2022/10/28 01:42:11;;;;;;;1.58;0.90;;;;;;;17.29;74.90;101265.41;5073646;29;20036;-83
2022/10/28 01:44:57;;;;;;;4.00;1.35;;;;;;;17.31;74.64;101259.09;5115947;29;20049;-83
2022/10/28 01:47:36;;;;;;;1.48;1.38;;;;;;;17.22;74.74;101269.28;5117228;28;20043;-84
2022/10/28 01:50:13;;;;;;;0.40;0.40;;;;;;;17.18;74.73;101260.63;5109227;28;20099;-84
2022/10/28 01:52:47;;;;;;;0.40;0.40;;;;;;;17.15;74.94;101260.75;5113800;28;20040;-84
2022/10/28 01:55:24;;;;;;;16.98;2.65;;;;;;;17.12;74.87;101260.91;5100437;29;20063;-84
2022/10/28 01:57:58;;;;;;;0.98;0.98;;;;;;;17.15;74.63;101251.00;5117580;28;20099;-84
2022/10/28 02:00:31;;;;;;;0.98;0.65;;;;;;;17.19;74.47;101251.72;5124410;28;20745;-83
2022/10/28 02:03:10;;;;;;;1.55;1.05;;;;;;;17.18;74.30;101247.34;5112838;28;20075;-84
2022/10/28 02:05:46;;;;;;;1.35;1.25;;;;;;;17.11;74.34;101245.91;5094253;29;20406;-84
2022/10/28 02:08:16;;;;;;;0.85;0.85;;;;;;;17.13;74.33;101254.66;5104993;29;20055;-84
2022/10/28 02:11:17;;;;;;;1.27;1.17;;;;;;;17.09;74.35;101253.06;5121272;28;20032;-84
2022/10/28 02:14:00;;;;;;;1.00;1.00;;;;;;;17.11;74.32;101251.22;5107114;28;20063;-84
2022/10/28 02:16:38;;;;;;;0.57;0.57;;;;;;;17.06;74.33;101245.28;5123484;28;20147;-84
2022/10/28 02:19:26;;;;;;;0.88;0.70;;;;;;;17.07;73.92;101246.97;5134871;28;20469;-84
2022/10/28 02:22:21;;;;;;;0.77;0.77;;;;;;;17.02;74.06;101249.00;5135222;28;20071;-84
2022/10/28 02:25:18;;;;;;;1.52;1.38;;;;;;;17.04;73.99;101239.19;5133625;28;20059;-85
2022/10/28 02:28:13;;;;;;;2.80;0.70;;;;;;;17.06;73.76;101235.53;5118649;28;20036;-84
2022/10/28 02:30:57;;;;;;;1.17;0.77;;;;;;;16.99;73.87;101226.97;5121433;28;20039;-84
2022/10/28 02:33:33;;;;;;;0.82;0.82;;;;;;;16.96;73.79;101228.91;5122392;28;20124;-83
2022/10/28 02:36:18;;;;;;;1.23;0.95;;;;;;;16.94;73.76;101221.06;5128272;29;20036;-84
2022/10/28 02:38:53;;;;;;;0.75;0.75;;;;;;;16.91;73.77;101223.78;5106224;29;20044;-83
2022/10/28 02:41:52;;;;;;;1.38;1.27;;;;;;;16.87;73.59;101216.94;5107074;29;20040;-84
2022/10/28 02:44:30;;;;;;;0.45;0.45;;;;;;;16.80;73.75;101220.78;5105879;29;20094;-84
2022/10/28 02:47:18;;;;;;;1.27;1.17;;;;;;;16.82;73.43;101218.91;5145370;28;20030;-85
2022/10/28 02:49:55;;;;;;;1.45;1.35;;;;;;;16.76;73.51;101225.38;5075907;29;20028;-85
2022/10/28 02:52:30;;;;;;;4.00;2.50;;;;;;;16.75;73.58;101225.41;5123675;29;20059;-84
2022/10/28 02:55:06;;;;;;;3.55;2.40;;;;;;;16.67;73.77;101223.97;5104033;29;20043;-84
2022/10/28 02:57:47;;;;;;;1.00;1.00;;;;;;;16.50;74.80;101221.22;5116946;28;20039;-84
2022/10/28 03:00:21;;;;;;;0.77;0.77;;;;;;;16.61;73.72;101212.81;5123417;29;20046;-84
2022/10/28 03:03:24;;;;;;;1.58;1.48;;;;;;;16.51;74.19;101215.00;5097687;28;20039;-84
2022/10/28 03:06:00;;;;;;;2.58;1.63;;;;;;;16.56;73.49;101214.78;5094613;29;20060;-84
2022/10/28 03:08:38;;;;;;;2.08;0.85;;;;;;;16.51;73.71;101213.22;5120154;28;20066;-84
2022/10/28 03:11:26;;;;;;;3.00;0.70;;;;;;;16.56;73.35;101210.38;5106797;29;20602;-83
2022/10/28 03:14:01;;;;;;;0.90;0.70;;;;;;;16.48;73.47;101201.91;5136221;28;20099;-85
2022/10/28 03:16:33;;;;;;;0.88;0.88;;;;;;;16.49;73.68;101208.91;5143913;28;20031;-83
2022/10/28 03:19:03;;;;;;;2.80;2.60;;;;;;;16.43;73.60;101203.88;5122056;28;20471;-83
2022/10/28 03:21:37;;;;;;;4.80;1.70;;;;;;;16.42;73.44;101202.16;5122141;28;20063;-85
2022/10/28 03:24:08;;;;;;;3.70;2.17;;;;;;;16.41;73.21;101203.94;5075298;29;20040;-84
2022/10/28 03:26:38;;;;;;;0.82;0.82;;;;;;;16.35;73.50;101197.13;5112295;29;20036;-84
2022/10/28 03:29:12;;;;;;;0.40;0.40;;;;;;;16.38;73.31;101195.28;5119155;28;20042;-84
2022/10/28 03:31:43;;;;;;;0.95;0.90;;;;;;;16.39;73.18;101202.31;5124517;28;20036;-84
2022/10/28 03:34:13;;;;;;;0.75;0.75;;;;;;;16.39;73.13;101202.31;5120039;28;20435;-89
2022/10/28 03:36:45;;;;;;;6.38;2.13;;;;;;;16.31;73.44;101199.97;5120118;28;20047;-82
2022/10/28 03:39:16;;;;;;;1.58;1.48;;;;;;;16.32;73.54;101193.75;5134247;28;20063;-86
2022/10/28 03:41:46;;;;;;;4.40;1.52;;;;;;;16.26;73.55;101194.03;5089682;29;20083;-85
2022/10/28 03:44:20;;;;;;;0.60;0.60;;;;;;;16.30;73.54;101192.97;5106496;29;20071;-83
2022/10/28 03:46:50;;;;;;;0.50;0.50;;;;;;;16.27;73.37;101177.22;5106661;29;20451;-84
2022/10/28 03:49:21;;;;;;;2.88;2.05;;;;;;;16.30;73.21;101177.94;5111705;28;20067;-85
2022/10/28 03:51:54;;;;;;;1.02;0.88;;;;;;;16.27;73.14;101179.88;5105228;29;20051;-88
2022/10/28 03:54:25;;;;;;;2.05;1.90;;;;;;;16.18;73.37;101186.41;5120674;28;20074;-84
2022/10/28 03:56:55;;;;;;;1.15;1.10;;;;;;;16.06;73.93;101185.16;5119494;28;20032;-86
2022/10/28 03:59:26;;;;;;;3.10;1.05;;;;;;;16.10;73.60;101189.41;5116234;29;20086;-85
2022/10/28 04:01:56;;;;;;;1.00;1.00;;;;;;;16.10;73.29;101184.13;5104395;29;20040;-87
2022/10/28 04:04:27;;;;;;;0.75;0.65;;;;;;;16.12;72.70;101179.59;5134961;28;20031;-86
2022/10/28 04:07:00;;;;;;;;;;;;;;;16.10;73.22;101181.47;5111829;29;20032;-87
2022/10/28 04:09:31;;;;;;;0.77;0.73;;;;;;;16.08;73.23;101177.13;5108621;29;19950;-87
2022/10/28 04:12:01;;;;;;;4.18;3.55;;;;;;;16.02;73.25;101179.13;5092426;29;20035;-87
2022/10/28 04:14:32;;;;;;;0.82;0.82;;;;;;;16.02;73.28;101178.28;5122172;29;20656;-84
2022/10/28 04:17:06;;;;;;;1.30;1.20;;;;;;;15.96;73.17;101190.00;5110927;28;20031;-84
2022/10/28 04:19:45;;;;;;;0.98;0.98;;;;;;;15.95;73.17;101182.13;5095564;29;20076;-87
2022/10/28 04:22:18;;;;;;;1.38;1.05;;;;;;;15.91;73.16;101197.25;5111829;29;20035;-85
2022/10/28 04:24:57;;;;;;;1.00;0.70;;;;;;;15.89;73.52;101204.41;5120113;28;20059;-85
2022/10/28 04:27:31;;;;;;;1.85;1.35;;;;;;;15.81;74.27;101209.13;5118491;28;20126;-86
2022/10/28 04:30:06;;;;;;;0.63;0.63;;;;;;;15.82;73.43;101193.19;5125180;28;20044;-86
2022/10/28 04:32:44;;;;;;;1.25;1.10;;;;;;;15.79;73.89;101195.09;5137806;28;20081;-86
2022/10/28 04:35:17;;;;;;;1.40;1.30;;;;;;;15.81;73.49;101202.03;5121433;28;20587;-85
2022/10/28 04:37:48;;;;;;;1.15;1.05;;;;;;;15.83;73.35;101196.66;5115447;29;20039;-85
2022/10/28 04:40:19;;;;;;;1.98;1.73;;;;;;;15.79;73.63;101195.09;5120855;28;20036;-85
2022/10/28 04:42:52;;;;;;;1.05;1.00;;;;;;;15.77;73.45;101196.94;5106345;28;20047;-89
2022/10/28 04:45:26;;;;;;;1.02;0.98;;;;;;;15.77;73.76;101204.88;5129008;29;21134;-87
2022/10/28 04:47:58;;;;;;;3.47;1.92;;;;;;;15.75;73.86;101202.28;5124098;28;20044;-85
2022/10/28 04:50:29;;;;;;;1.43;1.33;;;;;;;15.76;73.23;101205.78;5109185;29;20035;-85
2022/10/28 04:52:59;;;;;;;0.70;0.70;;;;;;;15.73;73.56;101206.78;5087484;29;20048;-85
2022/10/28 04:55:30;;;;;;;0.65;0.57;;;;;;;15.73;73.28;101197.06;5136315;28;20039;-87
2022/10/28 04:58:01;;;;;;;2.75;1.02;;;;;;;15.71;73.55;101196.28;5119605;28;20044;-85
2022/10/28 05:00:34;;;;;;;0.55;0.55;;;;;;;15.69;73.25;101192.81;5105024;28;20656;-85
2022/10/28 05:03:05;;;;;;;1.45;1.05;;;;;;;15.66;73.43;101197.38;5116264;28;20051;-84
2022/10/28 05:05:36;;;;;;;0.80;0.73;;;;;;;15.59;73.86;101196.75;5117528;29;20031;-86
2022/10/28 05:08:07;;;;;;;8.77;1.17;;;;;;;15.58;73.91;101197.69;5084225;29;20062;-86
2022/10/28 05:10:47;;;;;;;1.63;1.52;;;;;;;15.55;73.90;101196.03;5118905;28;20031;-86
2022/10/28 05:13:18;;;;;;;1.00;0.90;;;;;;;15.58;74.32;101197.69;5103653;28;20438;-85
2022/10/28 05:15:49;;;;;;;0.75;0.73;;;;;;;15.57;74.75;101198.63;5099379;28;20039;-87
2022/10/28 05:18:19;;;;;;;0.70;0.68;;;;;;;15.55;74.74;101192.53;5111796;29;20050;-85
2022/10/28 05:20:53;;;;;;;0.82;0.82;;;;;;;15.60;74.57;101202.94;5114953;28;20095;-86
2022/10/28 05:23:24;;;;;;;0.73;0.73;;;;;;;15.71;74.54;101212.13;5087621;29;20043;-84
2022/10/28 05:25:54;;;;;;;2.35;1.10;;;;;;;15.60;76.07;101205.56;5117104;28;20097;-84
2022/10/28 05:28:27;;;;;;;5.60;1.15;;;;;;;15.48;77.08;101204.28;5122290;29;20035;-86
2022/10/28 05:30:58;;;;;;;0.52;0.52;;;;;;;15.55;75.60;101203.09;5101981;29;20024;-85
2022/10/28 05:33:28;;;;;;;5.47;1.23;;;;;;;15.57;75.65;101199.47;5092641;29;20040;-84
2022/10/28 05:36:00;;;;;;;3.22;1.88;;;;;;;15.63;75.26;101200.13;5086915;29;20032;-85
2022/10/28 05:38:31;;;;;;;1.38;1.23;;;;;;;15.64;75.09;101205.38;5109599;28;20123;-84
2022/10/28 05:41:02;;;;;;;2.88;2.08;;;;;;;15.63;75.09;101201.00;5122719;28;20059;-84
2022/10/28 05:43:33;;;;;;;0.55;0.55;;;;;;;15.66;74.57;101203.50;5101246;28;20040;-85
2022/10/28 05:46:03;;;;;;;1.55;1.45;;;;;;;15.68;74.53;101196.38;5114898;29;20039;-81
2022/10/28 05:48:34;;;;;;;1.05;0.88;;;;;;;15.65;75.07;101204.47;5099868;29;20585;-81
2022/10/28 05:51:05;;;;;;;1.00;1.00;;;;;;;15.64;74.94;101200.09;5099629;29;20468;-83
2022/10/28 05:53:40;;;;;;;4.95;2.55;;;;;;;15.63;75.21;101202.78;5114091;28;20039;-83
2022/10/28 05:56:11;;;;;;;0.83;0.83;;;;;;;15.64;75.19;101193.94;5112349;28;20055;-83
2022/10/28 05:58:41;;;;;;;0.60;0.60;;;;;;;15.64;75.16;101193.94;5082354;29;20068;-83
2022/10/28 06:01:12;;;;;;;1.48;1.38;;;;;;;15.66;74.78;101197.38;5095530;28;20110;-83
2022/10/28 06:03:42;;;;;;;1.52;1.42;;;;;;;15.62;75.47;101196.66;5129572;28;20059;-83
2022/10/28 06:06:13;;;;;;;3.63;2.58;;;;;;;15.62;75.14;101194.00;5126232;28;20039;-83
2022/10/28 06:08:44;;;;;;;1.15;1.13;;;;;;;15.63;75.25;101195.72;5102885;28;20056;-82
2022/10/28 06:11:14;;;;;;;4.18;2.38;;;;;;;15.62;75.19;101196.66;5096382;29;20115;-83
2022/10/28 06:13:45;;;;;;;0.95;0.95;;;;;;;15.64;74.95;101196.56;5124349;28;20066;-83
2022/10/28 06:16:15;;;;;;;8.32;4.10;;;;;;;15.63;74.80;101193.06;5112425;29;20064;-83
2022/10/28 06:18:46;;;;;;;10.50;6.10;;;;;;;15.63;74.77;101205.44;5108659;28;20055;-82
2022/10/28 06:21:17;;;;;;;4.70;4.30;;;;;;;15.59;75.47;101212.63;5110637;28;20116;-82
2022/10/28 06:23:47;;;;;;;6.30;2.47;;;;;;;15.58;75.44;101208.25;5111826;28;20036;-82
2022/10/28 06:26:18;;;;;;;5.75;2.38;;;;;;;15.56;75.49;101210.97;5098206;29;20525;-83
2022/10/28 06:28:49;;;;;;;0.80;0.80;;;;;;;15.57;75.51;101203.91;5115170;28;20500;-82
2022/10/28 06:31:19;;;;;;;5.03;2.28;;;;;;;15.58;75.58;101208.25;5111042;28;20059;-83
2022/10/28 06:33:50;;;;;;;0.75;0.75;;;;;;;15.60;75.29;101214.34;5111365;28;20471;-82
2022/10/28 06:36:20;;;;;;;0.90;0.90;;;;;;;15.64;75.01;101210.66;5086943;29;20029;-83
2022/10/28 06:38:51;;;;;;;0.63;0.63;;;;;;;15.62;75.40;101212.50;5095585;29;20055;-82
2022/10/28 06:41:22;;;;;;;2.60;1.67;;;;;;;15.60;75.30;101203.78;5125629;28;20491;-82
2022/10/28 06:43:53;;;;;;;0.43;0.43;;;;;;;15.59;75.63;101207.34;5093179;29;20043;-82
2022/10/28 06:46:23;;;;;;;1.90;1.73;;;;;;;15.60;75.30;101206.41;5098727;29;20036;-84
2022/10/28 06:48:54;;;;;;;0.88;0.82;;;;;;;15.57;76.31;101204.75;5104945;29;20085;-83
2022/10/28 06:51:25;;;;;;;1.10;1.10;;;;;;;15.57;75.91;101211.84;5122118;28;20031;-84
2022/10/28 06:53:56;;;;;;;2.28;2.10;;;;;;;15.58;75.78;101219.72;5087139;29;20047;-82
2022/10/28 06:56:27;;;;;;;0.70;0.70;;;;;;;15.58;76.02;101214.41;5104295;29;20044;-85
2022/10/28 06:59:04;;;;;;;1.67;1.55;;;;;;;15.63;75.72;101210.72;5123032;28;20047;-85
2022/10/28 07:01:34;;;;;;;1.42;1.33;;;;;;;15.64;75.70;101215.97;5136969;28;20351;-86
2022/10/28 07:04:09;;;;;;;0.60;0.60;;;;;;;15.63;75.98;101216.88;5117789;28;20148;-85
2022/10/28 07:06:40;;;;;;;4.50;2.38;;;;;;;15.64;76.03;101212.44;5091754;29;20039;-84
2022/10/28 07:09:14;;;;;;;0.93;0.93;;;;;;;15.68;75.72;101217.53;5108747;29;20081;-85
2022/10/28 07:11:47;;;;;;;1.98;0.93;;;;;;;15.66;76.05;101227.31;5147968;28;20254;-85
2022/10/28 07:14:18;;;;;;;0.45;0.45;;;;;;;15.68;75.86;101222.00;5109191;29;20067;-84
2022/10/28 07:16:49;;;;;;;1.00;1.00;;;;;;;15.70;75.86;101231.59;5121135;28;20054;-84
2022/10/28 07:19:19;;;;;;;1.33;1.30;;;;;;;15.69;76.21;101235.16;5124142;28;20036;-85
2022/10/28 07:21:50;;;;;;;7.00;3.47;;;;;;;15.73;75.96;101235.88;5141402;28;20517;-88
2022/10/28 07:24:20;;;;;;;3.53;1.65;;;;;;;15.78;75.95;101230.41;5106755;28;20043;-86
2022/10/28 07:26:51;;;;;;;0.50;0.50;;;;;;;15.77;76.49;101231.31;5076629;29;20408;-85
2022/10/28 07:29:22;;;;;;;1.05;1.05;;;;;;;15.84;76.13;101236.34;5140586;28;20079;-84
2022/10/28 07:31:54;;;;;;;2.33;1.98;;;;;;;15.91;76.71;101230.78;5110817;29;20028;-85
2022/10/28 07:34:25;;;;;;;1.15;1.15;;;;;;;15.87;77.45;101238.84;5101283;29;20032;-85
2022/10/28 07:36:56;;;;;;;1.90;1.45;;;;;;;15.86;78.53;101244.22;5098122;28;20534;-84
2022/10/28 07:39:28;;;;;;;1.17;1.17;;;;;;;15.94;77.54;101249.19;5064982;29;20048;-87
2022/10/28 07:42:00;;;;;;;0.60;0.60;;;;;;;15.94;77.59;101251.84;5079278;29;20032;-85
2022/10/28 07:44:30;;;;;;;0.40;0.40;;;;;;;15.99;78.08;101248.06;5084470;29;20048;-85
2022/10/28 07:47:01;;;;;;;0.90;0.90;;;;;;;16.00;77.90;101255.09;5066161;29;20523;-85
2022/10/28 07:49:32;;;;;;;1.40;0.60;;;;;;;16.03;78.20;101262.06;5083206;28;20384;-85
2022/10/28 07:52:04;;;;;;;0.73;0.73;;;;;;;16.08;77.90;101259.19;5097778;29;20048;-86
2022/10/28 07:54:34;;;;;;;0.70;0.70;;;;;;;16.08;78.64;101256.53;5052557;29;20060;-87
2022/10/28 07:57:08;;;;;;;2.55;1.95;;;;;;;16.07;79.30;101255.69;5103520;29;20063;-84
2022/10/28 07:59:39;;;;;;;1.13;1.05;;;;;;;16.10;78.94;101255.59;5082624;28;20419;-87
2022/10/28 08:02:17;;;;;;;1.58;1.30;;;;;;;16.30;77.95;101253.84;5096346;29;20047;-85
2022/10/28 08:04:49;;;;;;;1.70;1.60;;;;;;;16.21;78.58;101247.19;5086351;29;20339;-85
2022/10/28 08:07:19;;;;;;;0.80;0.77;;;;;;;16.24;78.05;101243.53;5055008;29;20032;-85
2022/10/28 08:09:51;;;;;;;0.63;0.63;;;;;;;16.22;78.54;101238.31;5057699;29;20039;-85
2022/10/28 08:12:22;;;;;;;1.55;1.42;;;;;;;16.31;77.70;101239.69;5086081;29;20023;-85
2022/10/28 08:14:53;;;;;;;1.60;1.35;;;;;;;16.34;77.33;101237.78;5082595;29;20067;-85
2022/10/28 08:17:24;;;;;;;2.28;1.48;;;;;;;16.39;77.91;101244.69;5098454;29;20554;-87
2022/10/28 08:19:54;;;;;;;5.38;1.70;;;;;;;16.33;77.95;101249.28;5049387;29;20064;-84
2022/10/28 08:22:25;;;;;;;0.70;0.70;;;;;;;16.36;77.88;101246.53;5104438;29;20494;-85
2022/10/28 08:24:59;;;;;;;3.85;1.83;;;;;;;16.38;77.78;101256.19;5093545;29;20083;-85
2022/10/28 08:27:30;;;;;;;0.43;0.43;;;;;;;16.42;77.65;101250.69;5062734;29;20044;-85
2022/10/28 08:30:03;;;;;;;0.90;0.90;;;;;;;16.40;77.96;101241.09;5108547;28;20048;-86
2022/10/28 08:32:34;;;;;;;0.77;0.77;;;;;;;16.45;77.58;101249.69;5088334;29;20036;-84
2022/10/28 08:35:05;;;;;;;2.63;1.98;;;;;;;16.47;77.30;101247.84;5051431;29;20099;-86
2022/10/28 08:37:35;;;;;;;0.77;0.55;;;;;;;16.48;77.46;101239.00;5057316;29;20170;-85
2022/10/28 08:40:11;;;;;;;2.75;0.93;;;;;;;16.47;77.74;101242.56;5082518;29;20098;-85
2022/10/28 08:42:46;;;;;;;0.70;0.70;;;;;;;16.48;77.69;101254.88;5086528;28;20043;-84
2022/10/28 08:45:38;;;;;;;0.60;0.60;;;;;;;16.49;77.83;101245.97;5084794;29;20056;-85
2022/10/28 08:48:32;;;;;;;0.90;0.90;;;;;;;16.54;77.41;101233.41;5085781;29;20037;-84
2022/10/28 08:51:43;;;;;;;0.70;0.70;;;;;;;16.56;77.60;101234.22;5091835;29;20024;-85
2022/10/28 08:54:20;;;;;;;2.03;1.40;;;;;;;16.71;77.86;101239.75;5102273;29;20123;-85
2022/10/28 08:56:53;;;;;;;1.80;1.70;;;;;;;16.64;77.97;101234.72;5101161;28;20075;-86
2022/10/28 08:59:28;;;;;;;;;;;;;;;16.68;77.88;101238.94;5055916;29;20079;-84
2022/10/28 09:02:03;;;;;;;1.23;1.00;;;;;;;16.70;77.96;101228.28;5089781;29;20314;-86
2022/10/28 09:04:40;;;;;;;0.45;0.45;;;;;;;16.72;78.24;101228.22;5068523;29;20052;-86
2022/10/28 09:07:20;;;;;;;1.20;1.00;;;;;;;16.76;78.62;101224.50;5097962;29;20067;-85
2022/10/28 09:09:52;;;;;;;1.17;1.08;;;;;;;16.82;78.02;101225.09;5113217;28;20044;-85
2022/10/28 09:12:55;;;;;;;0.82;0.82;;;;;;;16.89;78.00;101222.16;5114968;28;20028;-85
2022/10/28 09:15:44;;;;;;;1.88;1.67;;;;;;;16.91;78.33;101222.94;5054825;29;20423;-84
2022/10/28 09:18:17;;;;;;;0.75;0.75;;;;;;;17.05;77.97;101223.19;5070662;29;20075;-86
2022/10/28 09:20:54;;;;;;;0.68;0.68;;;;;;;17.03;77.88;101225.06;5101955;29;20083;-86
2022/10/28 09:23:32;;;;;;;1.20;1.10;;;;;;;17.11;77.42;101219.41;5101871;28;20091;-85
2022/10/28 09:26:20;;;;;;;1.30;1.08;;;;;;;17.13;77.64;101223.69;5105277;29;20024;-86
2022/10/28 09:29:14;;;;;;;3.00;1.10;;;;;;;17.16;77.89;101220.03;5106537;29;20048;-84
2022/10/28 09:32:09;;;;;;;7.53;1.05;;;;;;;17.23;77.67;101213.50;5070076;29;20028;-84
2022/10/28 09:34:53;;;;;;;1.52;1.33;;;;;;;17.32;77.37;101220.19;5096543;28;20039;-83
2022/10/28 09:37:33;;;;;;;3.30;1.53;;;;;;;17.35;76.98;101224.47;5133151;28;20525;-82
2022/10/28 09:40:20;;;;;;;2.08;1.52;;;;;;;17.40;77.36;101227.75;5081906;29;20290;-83
2022/10/28 09:43:24;;;;;;;1.67;1.45;;;;;;;17.49;77.64;101232.63;5093322;28;20172;-83
2022/10/28 09:46:08;;;;;;;0.93;0.68;;;;;;;17.54;77.49;101233.28;5096896;29;20060;-83
2022/10/28 09:48:46;;;;;;;2.55;1.35;;;;;;;17.70;76.91;101227.22;5089289;28;20044;-83
2022/10/28 09:51:43;;;;;;;2.33;2.13;;;;;;;17.70;76.96;101227.22;5098304;28;20040;-83
2022/10/28 09:54:14;;;;;;;0.47;0.47;;;;;;;17.74;76.90;101220.81;5108711;28;20499;-83
2022/10/28 09:56:47;;;;;;;0.95;0.95;;;;;;;17.80;76.97;101220.53;5090783;29;20091;-83
2022/10/28 09:59:18;;;;;;;0.40;0.40;;;;;;;17.90;76.50;101224.44;5107502;28;20044;-84
2022/10/28 10:01:49;;;;;;;1.52;1.42;;;;;;;17.96;76.44;101219.81;5127321;28;20522;-83
2022/10/28 10:04:30;;;;;;;0.40;0.40;;;;;;;18.03;76.32;101231.84;5101399;28;20047;-83
2022/10/28 10:07:11;;;;;;;0.93;0.93;;;;;;;18.08;76.01;101227.13;5096834;28;20135;-84
2022/10/28 10:09:43;;;;;;;2.53;1.42;;;;;;;18.13;75.83;101233.09;5129161;28;20043;-83
2022/10/28 10:12:14;;;;;;;0.80;0.80;;;;;;;18.15;76.07;101236.50;5105833;29;20032;-83
2022/10/28 10:14:48;;;;;;;1.35;0.50;;;;;;;18.23;75.46;101228.16;5096787;29;20040;-83
2022/10/28 10:17:42;;;;;;;1.67;1.58;;;;;;;18.25;75.00;101227.13;5069449;29;20063;-83
2022/10/28 10:20:21;;;;;;;0.63;0.63;;;;;;;18.25;75.58;101227.13;5096000;29;20168;-83
2022/10/28 10:22:52;;;;;;;0.98;0.55;;;;;;;18.34;75.11;101230.25;5097971;28;20055;-83
2022/10/28 10:25:28;;;;;;;0.47;0.47;;;;;;;18.39;74.83;101237.06;5118697;28;20442;-83
2022/10/28 10:28:13;;;;;;;0.60;0.60;;;;;;;18.44;73.99;101236.81;5083681;28;20798;-83
2022/10/28 10:30:53;;;;;;;1.17;1.00;;;;;;;18.55;74.21;101228.28;5112209;28;20036;-84
2022/10/28 10:33:29;;;;;;;1.52;1.42;;;;;;;18.55;74.56;101229.13;5070485;29;20885;-84
2022/10/28 10:36:09;;;;;;;1.48;1.40;;;;;;;18.55;74.81;101231.78;5105287;28;20126;-85
2022/10/28 10:38:54;;;;;;;0.75;0.75;;;;;;;18.62;74.75;101228.81;5091560;29;20512;-83
2022/10/28 10:41:35;;;;;;;1.45;1.35;;;;;;;18.64;74.79;101227.81;5073823;29;20039;-85
2022/10/28 10:44:21;;;;;;;0.40;0.40;;;;;;;18.81;74.52;101224.22;5103600;28;20040;-85
2022/10/28 10:47:03;;;;;;;0.73;0.73;;;;;;;18.84;74.72;101216.09;5091540;28;20040;-85
2022/10/28 10:49:36;;;;;;;1.10;1.02;;;;;;;18.91;74.74;101218.41;5077997;29;20044;-84
2022/10/28 10:52:22;;;;;;;12.20;3.20;;;;;;;18.96;74.34;101211.94;5114873;28;20040;-84
2022/10/28 10:55:03;;;;;;;0.88;0.88;;;;;;;19.00;73.92;101215.28;5109798;28;20052;-85
2022/10/28 10:57:40;;;;;;;0.50;0.50;;;;;;;19.14;73.12;101214.53;5100393;28;20045;-85
2022/10/28 11:00:19;;;;;;;1.13;1.13;;;;;;;19.12;74.13;101206.66;5045963;29;20028;-84
2022/10/28 11:02:50;;;;;;;11.45;2.67;;;;;;;19.19;74.06;101212.47;5108944;28;20036;-85
2022/10/28 11:05:22;;;;;;;0.93;0.88;;;;;;;19.29;74.03;101210.16;5082752;29;20031;-84
2022/10/28 11:07:53;;;;;;;4.93;1.73;;;;;;;19.33;74.13;101209.91;5096364;28;20091;-85
2022/10/28 11:10:30;;;;;;;1.05;1.05;;;;;;;19.42;74.45;101197.88;5118653;28;20034;-84
2022/10/28 11:13:23;;;;;;;4.57;1.20;;;;;;;19.48;73.08;101202.00;5078931;28;20044;-84
2022/10/28 11:16:21;;;;;;;0.60;0.60;;;;;;;19.78;71.05;101202.03;5095990;29;20088;-85
2022/10/28 11:18:52;;;;;;;1.10;0.85;;;;;;;19.76;71.01;101201.25;5060909;29;20451;-85
2022/10/28 11:21:49;;;;;;;1.40;1.23;;;;;;;19.80;70.57;101191.28;5107946;28;20586;-85
2022/10/28 11:24:43;;;;;;;4.03;1.13;;;;;;;19.96;69.81;101181.47;5069763;29;20051;-85
2022/10/28 11:27:35;;;;;;;0.90;0.80;;;;;;;19.99;68.79;101177.78;5096790;28;20092;-86
2022/10/28 11:30:26;;;;;;;7.03;2.33;;;;;;;20.19;69.20;101173.91;5074744;28;20044;-85
2022/10/28 11:33:08;;;;;;;0.75;0.75;;;;;;;20.15;69.74;101172.41;5100359;28;20042;-85
2022/10/28 11:36:01;;;;;;;0.93;0.93;;;;;;;20.37;68.27;101177.25;5057199;29;20090;-85
2022/10/28 11:38:47;;;;;;;1.85;1.75;;;;;;;20.35;69.39;101168.53;5075778;28;20393;-85
2022/10/28 11:41:34;;;;;;;1.90;1.48;;;;;;;20.43;69.19;101173.34;5111808;29;20651;-86
2022/10/28 11:44:29;;;;;;;1.27;0.82;;;;;;;20.41;69.46;101170.78;5095516;28;20055;-85
2022/10/28 11:47:35;;;;;;;3.15;0.65;;;;;;;20.52;69.64;101166.63;5081369;29;20085;-86
2022/10/28 11:50:21;;;;;;;0.55;0.55;;;;;;;20.70;68.48;101176.09;5089138;29;20084;-85
2022/10/28 11:53:19;;;;;;;0.30;0.30;;;;;;;20.85;67.63;101163.66;5057596;28;20169;-85
2022/10/28 11:55:55;;;;;;;1.10;1.05;;;;;;;21.01;65.62;101163.56;5092482;29;20111;-86
2022/10/28 11:58:58;;;;;;;0.40;0.40;;;;;;;21.27;65.15;101163.69;5075421;29;20048;-85
2022/10/28 12:01:29;;;;;;;1.45;1.33;;;;;;;21.33;64.22;101162.41;5108042;28;20047;-86
2022/10/28 12:04:25;;;;;;;0.80;0.80;;;;;;;21.54;61.81;101154.78;5091665;28;20507;-85
2022/10/28 12:07:33;;;;;;;2.28;1.52;;;;;;;21.38;64.83;101144.28;5122841;28;20543;-85
2022/10/28 12:10:29;;;;;;;5.97;3.17;;;;;;;21.46;63.56;101146.44;5100629;29;20036;-86
2022/10/28 12:13:26;;;;;;;13.02;2.15;;;;;;;21.68;61.05;101146.75;5072267;28;20040;-86